sensor_id;sensor_type;location;lat;lon;timestamp;temperature;humidity
5842;DHT22;2947;52.276;9.946;2023-02-28T00:00:31;2.20;1.00
5842;DHT22;2947;52.276;9.946;2023-02-28T00:02:57;2.10;1.00
5842;DHT22;2947;52.276;9.946;2023-02-28T00:05:25;2.10;1.00
5842;DHT22;2947;52.276;9.946;2023-02-28T00:07:51;2.10;1.00
5842;DHT22;2947;52.276;9.946;2023-02-28T00:10:23;2.10;1.00
5842;DHT22;2947;52.276;9.946;2023-02-28T00:12:51;2.10;1.00
5842;DHT22;2947;52.276;9.946;2023-02-28T00:15:17;2.10;1.00
5842;DHT22;2947;52.276;9.946;2023-02-28T00:17:43;2.00;1.00
5842;DHT22;2947;52.276;9.946;2023-02-28T00:20:12;2.10;1.00
5842;DHT22;2947;52.276;9.946;2023-02-28T00:22:41;2.10;1.00
5842;DHT22;2947;52.276;9.946;2023-02-28T00:25:14;2.00;1.00
5842;DHT22;2947;52.276;9.946;2023-02-28T00:27:42;2.00;1.00
5842;DHT22;2947;52.276;9.946;2023-02-28T00:30:17;2.00;1.00
5842;DHT22;2947;52.276;9.946;2023-02-28T00:32:46;1.90;1.00
5842;DHT22;2947;52.276;9.946;2023-02-28T00:35:12;1.90;1.00
5842;DHT22;2947;52.276;9.946;2023-02-28T00:37:38;1.90;1.00
5842;DHT22;2947;52.276;9.946;2023-02-28T00:40:04;1.90;1.00
5842;DHT22;2947;52.276;9.946;2023-02-28T00:42:32;1.90;1.00
5842;DHT22;2947;52.276;9.946;2023-02-28T00:45:02;1.90;1.00
5842;DHT22;2947;52.276;9.946;2023-02-28T00:47:32;1.90;1.00
5842;DHT22;2947;52.276;9.946;2023-02-28T00:49:57;1.80;1.00
5842;DHT22;2947;52.276;9.946;2023-02-28T00:52:23;1.80;1.00
5842;DHT22;2947;52.276;9.946;2023-02-28T00:54:49;1.70;1.00
5842;DHT22;2947;52.276;9.946;2023-02-28T00:57:14;1.60;1.00
5842;DHT22;2947;52.276;9.946;2023-02-28T00:59:40;1.60;1.00
5842;DHT22;2947;52.276;9.946;2023-02-28T01:02:06;1.60;1.00
5842;DHT22;2947;52.276;9.946;2023-02-28T01:04:32;1.60;1.00
5842;DHT22;2947;52.276;9.946;2023-02-28T01:06:58;1.50;1.00
5842;DHT22;2947;52.276;9.946;2023-02-28T01:09:23;1.40;1.00
5842;DHT22;2947;52.276;9.946;2023-02-28T01:11:49;1.40;1.00
5842;DHT22;2947;52.276;9.946;2023-02-28T01:14:16;1.40;1.00
5842;DHT22;2947;52.276;9.946;2023-02-28T01:16:42;1.40;99.00
5842;DHT22;2947;52.276;9.946;2023-02-28T01:19:08;1.30;99.90
5842;DHT22;2947;52.276;9.946;2023-02-28T01:21:34;1.30;99.90
5842;DHT22;2947;52.276;9.946;2023-02-28T01:24:01;1.20;99.90
5842;DHT22;2947;52.276;9.946;2023-02-28T01:26:27;1.20;99.90
5842;DHT22;2947;52.276;9.946;2023-02-28T01:28:53;1.10;43.40
5842;DHT22;2947;52.276;9.946;2023-02-28T01:31:20;1.00;1.00
5842;DHT22;2947;52.276;9.946;2023-02-28T01:33:47;1.00;1.00
5842;DHT22;2947;52.276;9.946;2023-02-28T01:36:21;0.90;1.00
5842;DHT22;2947;52.276;9.946;2023-02-28T01:38:48;0.90;1.00
5842;DHT22;2947;52.276;9.946;2023-02-28T01:41:26;0.80;1.00
5842;DHT22;2947;52.276;9.946;2023-02-28T01:44:04;0.70;1.00
5842;DHT22;2947;52.276;9.946;2023-02-28T01:46:33;0.70;1.00
5842;DHT22;2947;52.276;9.946;2023-02-28T01:49:18;0.70;1.00
5842;DHT22;2947;52.276;9.946;2023-02-28T01:51:48;0.70;99.90
5842;DHT22;2947;52.276;9.946;2023-02-28T01:54:22;0.70;17.70
5842;DHT22;2947;52.276;9.946;2023-02-28T01:59:31;0.60;99.90
5842;DHT22;2947;52.276;9.946;2023-02-28T02:02:00;0.60;1.00
5842;DHT22;2947;52.276;9.946;2023-02-28T02:04:34;0.50;38.80
5842;DHT22;2947;52.276;9.946;2023-02-28T02:07:03;0.50;99.90
5842;DHT22;2947;52.276;9.946;2023-02-28T02:09:29;0.50;99.90
5842;DHT22;2947;52.276;9.946;2023-02-28T02:11:55;0.50;99.90
5842;DHT22;2947;52.276;9.946;2023-02-28T02:14:43;0.50;85.60
5842;DHT22;2947;52.276;9.946;2023-02-28T02:31:48;0.30;1.00
5842;DHT22;2947;52.276;9.946;2023-02-28T02:46:24;0.10;99.90
5842;DHT22;2947;52.276;9.946;2023-02-28T02:48:55;0.10;1.00
5842;DHT22;2947;52.276;9.946;2023-02-28T02:51:23;0.00;1.00
5842;DHT22;2947;52.276;9.946;2023-02-28T02:53:54;0.00;1.00
5842;DHT22;2947;52.276;9.946;2023-02-28T02:56:26;0.00;99.90
5842;DHT22;2947;52.276;9.946;2023-02-28T02:58:59;0.00;1.00
5842;DHT22;2947;52.276;9.946;2023-02-28T03:01:28;-0.10;99.90
5842;DHT22;2947;52.276;9.946;2023-02-28T03:03:59;-0.10;99.90
5842;DHT22;2947;52.276;9.946;2023-02-28T03:06:27;-0.20;99.90
5842;DHT22;2947;52.276;9.946;2023-02-28T03:08:52;-0.20;99.90
5842;DHT22;2947;52.276;9.946;2023-02-28T03:11:18;-0.20;99.90
5842;DHT22;2947;52.276;9.946;2023-02-28T03:20:04;-0.20;99.90
5842;DHT22;2947;52.276;9.946;2023-02-28T03:26:06;-0.30;99.90
5842;DHT22;2947;52.276;9.946;2023-02-28T03:29:08;-0.30;99.90
5842;DHT22;2947;52.276;9.946;2023-02-28T03:31:52;-0.30;99.90
5842;DHT22;2947;52.276;9.946;2023-02-28T03:34:29;-0.30;99.90
5842;DHT22;2947;52.276;9.946;2023-02-28T03:37:04;-0.30;99.90
5842;DHT22;2947;52.276;9.946;2023-02-28T03:40:06;-0.30;99.90
5842;DHT22;2947;52.276;9.946;2023-02-28T03:42:36;-0.30;99.90
5842;DHT22;2947;52.276;9.946;2023-02-28T03:45:15;-0.30;99.90
5842;DHT22;2947;52.276;9.946;2023-02-28T03:50:43;-0.30;1.00
5842;DHT22;2947;52.276;9.946;2023-02-28T03:56:02;-0.30;1.00
5842;DHT22;2947;52.276;9.946;2023-02-28T04:01:39;-0.30;25.80
5842;DHT22;2947;52.276;9.946;2023-02-28T04:04:08;-0.30;1.00
5842;DHT22;2947;52.276;9.946;2023-02-28T04:06:35;-0.40;1.00
5842;DHT22;2947;52.276;9.946;2023-02-28T04:09:02;-0.30;1.00
5842;DHT22;2947;52.276;9.946;2023-02-28T04:11:35;-0.30;99.90
5842;DHT22;2947;52.276;9.946;2023-02-28T04:14:05;-0.40;99.90
5842;DHT22;2947;52.276;9.946;2023-02-28T04:16:33;-0.50;99.90
5842;DHT22;2947;52.276;9.946;2023-02-28T04:19:02;-0.50;1.00
5842;DHT22;2947;52.276;9.946;2023-02-28T04:21:30;-0.50;1.00
5842;DHT22;2947;52.276;9.946;2023-02-28T04:24:27;-0.40;1.00
5842;DHT22;2947;52.276;9.946;2023-02-28T04:26:55;-0.50;1.00
5842;DHT22;2947;52.276;9.946;2023-02-28T04:29:24;-0.60;1.00
5842;DHT22;2947;52.276;9.946;2023-02-28T04:31:52;-0.60;1.00
5842;DHT22;2947;52.276;9.946;2023-02-28T04:34:26;-0.50;1.00
5842;DHT22;2947;52.276;9.946;2023-02-28T04:36:52;-0.50;1.00
5842;DHT22;2947;52.276;9.946;2023-02-28T04:39:20;-0.50;1.00
5842;DHT22;2947;52.276;9.946;2023-02-28T04:41:47;-0.50;1.00
5842;DHT22;2947;52.276;9.946;2023-02-28T04:44:13;-0.50;1.00
5842;DHT22;2947;52.276;9.946;2023-02-28T04:46:39;-0.50;1.00
5842;DHT22;2947;52.276;9.946;2023-02-28T04:49:05;-0.50;1.00
5842;DHT22;2947;52.276;9.946;2023-02-28T04:51:31;-0.50;1.00
5842;DHT22;2947;52.276;9.946;2023-02-28T04:54:00;-0.50;1.00
5842;DHT22;2947;52.276;9.946;2023-02-28T04:56:25;-0.50;1.00
5842;DHT22;2947;52.276;9.946;2023-02-28T04:58:51;-0.50;1.00
5842;DHT22;2947;52.276;9.946;2023-02-28T05:01:24;-0.50;1.00
5842;DHT22;2947;52.276;9.946;2023-02-28T05:03:52;-0.50;1.00
5842;DHT22;2947;52.276;9.946;2023-02-28T05:06:20;-0.50;1.00
5842;DHT22;2947;52.276;9.946;2023-02-28T05:08:46;-0.50;1.00
5842;DHT22;2947;52.276;9.946;2023-02-28T05:11:28;-0.50;1.00
5842;DHT22;2947;52.276;9.946;2023-02-28T05:14:06;-0.50;1.00
5842;DHT22;2947;52.276;9.946;2023-02-28T05:16:34;-0.50;1.00
5842;DHT22;2947;52.276;9.946;2023-02-28T05:19:00;-0.40;1.00
5842;DHT22;2947;52.276;9.946;2023-02-28T05:21:32;-0.50;1.00
5842;DHT22;2947;52.276;9.946;2023-02-28T05:24:01;-0.40;1.00
5842;DHT22;2947;52.276;9.946;2023-02-28T05:26:29;-0.40;1.00
5842;DHT22;2947;52.276;9.946;2023-02-28T05:28:56;-0.40;1.00
5842;DHT22;2947;52.276;9.946;2023-02-28T05:31:22;-0.40;1.00
5842;DHT22;2947;52.276;9.946;2023-02-28T05:33:47;-0.40;1.00
5842;DHT22;2947;52.276;9.946;2023-02-28T05:36:13;-0.40;99.90
5842;DHT22;2947;52.276;9.946;2023-02-28T05:38:39;-0.50;99.90
5842;DHT22;2947;52.276;9.946;2023-02-28T05:41:06;-0.50;99.90
5842;DHT22;2947;52.276;9.946;2023-02-28T05:43:33;-0.60;99.90
5842;DHT22;2947;52.276;9.946;2023-02-28T05:46:01;-0.60;99.90
5842;DHT22;2947;52.276;9.946;2023-02-28T05:48:27;-0.60;99.90
5842;DHT22;2947;52.276;9.946;2023-02-28T05:50:53;-0.60;99.90
5842;DHT22;2947;52.276;9.946;2023-02-28T05:53:19;-0.70;1.00
5842;DHT22;2947;52.276;9.946;2023-02-28T05:55:44;-0.70;1.00
5842;DHT22;2947;52.276;9.946;2023-02-28T05:58:10;-0.70;99.90
5842;DHT22;2947;52.276;9.946;2023-02-28T06:00:36;-0.70;99.90
5842;DHT22;2947;52.276;9.946;2023-02-28T06:03:01;-0.70;99.90
5842;DHT22;2947;52.276;9.946;2023-02-28T06:05:27;-0.70;99.90
5842;DHT22;2947;52.276;9.946;2023-02-28T06:07:53;-0.80;1.00
5842;DHT22;2947;52.276;9.946;2023-02-28T06:10:19;-0.80;1.00
5842;DHT22;2947;52.276;9.946;2023-02-28T06:12:45;-0.90;83.90
5842;DHT22;2947;52.276;9.946;2023-02-28T06:15:14;-0.90;99.90
5842;DHT22;2947;52.276;9.946;2023-02-28T06:17:41;-0.90;99.90
5842;DHT22;2947;52.276;9.946;2023-02-28T06:20:08;-0.90;99.90
5842;DHT22;2947;52.276;9.946;2023-02-28T06:22:36;-0.90;99.90
5842;DHT22;2947;52.276;9.946;2023-02-28T06:25:03;-0.80;99.90
5842;DHT22;2947;52.276;9.946;2023-02-28T06:27:31;-0.90;99.90
5842;DHT22;2947;52.276;9.946;2023-02-28T06:29:57;-1.00;99.90
5842;DHT22;2947;52.276;9.946;2023-02-28T06:32:23;-1.00;99.90
5842;DHT22;2947;52.276;9.946;2023-02-28T06:34:48;-1.00;99.90
5842;DHT22;2947;52.276;9.946;2023-02-28T06:37:16;-1.00;99.90
5842;DHT22;2947;52.276;9.946;2023-02-28T06:39:42;-1.00;99.90
5842;DHT22;2947;52.276;9.946;2023-02-28T06:42:08;-0.90;99.90
5842;DHT22;2947;52.276;9.946;2023-02-28T06:44:33;-1.00;99.90
5842;DHT22;2947;52.276;9.946;2023-02-28T06:47:03;-1.00;99.90
5842;DHT22;2947;52.276;9.946;2023-02-28T06:49:31;-1.00;99.90
5842;DHT22;2947;52.276;9.946;2023-02-28T06:51:58;-0.90;99.90
5842;DHT22;2947;52.276;9.946;2023-02-28T06:54:24;-1.00;99.90
5842;DHT22;2947;52.276;9.946;2023-02-28T06:56:49;-1.00;99.90
5842;DHT22;2947;52.276;9.946;2023-02-28T06:59:16;-1.00;99.90
5842;DHT22;2947;52.276;9.946;2023-02-28T07:01:42;-0.90;99.90
5842;DHT22;2947;52.276;9.946;2023-02-28T07:04:08;-0.90;99.90
5842;DHT22;2947;52.276;9.946;2023-02-28T07:06:33;-0.90;99.90
5842;DHT22;2947;52.276;9.946;2023-02-28T07:08:59;-0.80;99.90
5842;DHT22;2947;52.276;9.946;2023-02-28T07:11:27;-0.80;99.90
5842;DHT22;2947;52.276;9.946;2023-02-28T07:13:56;-0.80;99.90
5842;DHT22;2947;52.276;9.946;2023-02-28T07:16:23;-0.70;99.90
5842;DHT22;2947;52.276;9.946;2023-02-28T07:18:51;-0.80;99.90
5842;DHT22;2947;52.276;9.946;2023-02-28T07:21:17;-0.70;99.90
5842;DHT22;2947;52.276;9.946;2023-02-28T07:23:43;-0.70;99.90
5842;DHT22;2947;52.276;9.946;2023-02-28T07:26:12;-0.70;1.00
5842;DHT22;2947;52.276;9.946;2023-02-28T07:28:46;-0.60;1.00
5842;DHT22;2947;52.276;9.946;2023-02-28T07:31:14;-0.50;1.00
5842;DHT22;2947;52.276;9.946;2023-02-28T07:33:41;-0.40;1.00
5842;DHT22;2947;52.276;9.946;2023-02-28T07:36:09;-0.40;1.00
5842;DHT22;2947;52.276;9.946;2023-02-28T07:38:41;-0.30;1.00
5842;DHT22;2947;52.276;9.946;2023-02-28T07:41:09;-0.30;99.90
5842;DHT22;2947;52.276;9.946;2023-02-28T07:43:35;-0.20;99.90
5842;DHT22;2947;52.276;9.946;2023-02-28T07:46:09;-0.10;99.90
5842;DHT22;2947;52.276;9.946;2023-02-28T07:48:37;-0.10;99.90
5842;DHT22;2947;52.276;9.946;2023-02-28T07:51:03;0.00;1.00
5842;DHT22;2947;52.276;9.946;2023-02-28T07:53:29;0.10;1.00
5842;DHT22;2947;52.276;9.946;2023-02-28T07:55:59;0.20;1.00
5842;DHT22;2947;52.276;9.946;2023-02-28T07:58:27;0.30;1.00
5842;DHT22;2947;52.276;9.946;2023-02-28T08:00:54;0.40;1.00
5842;DHT22;2947;52.276;9.946;2023-02-28T08:03:21;0.40;1.00
5842;DHT22;2947;52.276;9.946;2023-02-28T08:05:48;0.60;99.90
5842;DHT22;2947;52.276;9.946;2023-02-28T08:08:15;0.60;1.00
5842;DHT22;2947;52.276;9.946;2023-02-28T08:10:42;0.70;55.20
5842;DHT22;2947;52.276;9.946;2023-02-28T08:13:08;0.80;99.90
5842;DHT22;2947;52.276;9.946;2023-02-28T08:15:34;0.90;99.90
5842;DHT22;2947;52.276;9.946;2023-02-28T08:18:01;0.90;99.90
5842;DHT22;2947;52.276;9.946;2023-02-28T08:20:27;1.10;99.90
5842;DHT22;2947;52.276;9.946;2023-02-28T08:22:53;1.20;1.00
5842;DHT22;2947;52.276;9.946;2023-02-28T08:25:19;1.20;99.90
5842;DHT22;2947;52.276;9.946;2023-02-28T08:27:45;1.30;1.00
5842;DHT22;2947;52.276;9.946;2023-02-28T08:30:12;1.40;1.00
5842;DHT22;2947;52.276;9.946;2023-02-28T08:32:39;1.40;99.90
5842;DHT22;2947;52.276;9.946;2023-02-28T08:35:06;1.50;99.90
5842;DHT22;2947;52.276;9.946;2023-02-28T08:37:32;1.60;1.00
5842;DHT22;2947;52.276;9.946;2023-02-28T08:39:58;1.70;1.00
5842;DHT22;2947;52.276;9.946;2023-02-28T08:42:24;1.80;68.80
5842;DHT22;2947;52.276;9.946;2023-02-28T08:44:49;1.90;99.90
5842;DHT22;2947;52.276;9.946;2023-02-28T08:47:16;2.00;99.90
5842;DHT22;2947;52.276;9.946;2023-02-28T08:49:41;2.10;1.00
5842;DHT22;2947;52.276;9.946;2023-02-28T08:52:07;2.20;1.00
5842;DHT22;2947;52.276;9.946;2023-02-28T08:54:33;2.30;1.00
5842;DHT22;2947;52.276;9.946;2023-02-28T08:56:59;2.40;1.00
5842;DHT22;2947;52.276;9.946;2023-02-28T08:59:25;2.50;99.90
5842;DHT22;2947;52.276;9.946;2023-02-28T09:01:51;2.60;99.90
5842;DHT22;2947;52.276;9.946;2023-02-28T09:04:16;2.70;99.90
5842;DHT22;2947;52.276;9.946;2023-02-28T09:06:42;2.80;18.20
5842;DHT22;2947;52.276;9.946;2023-02-28T09:09:08;2.90;1.00
5842;DHT22;2947;52.276;9.946;2023-02-28T09:11:35;3.00;1.00
5842;DHT22;2947;52.276;9.946;2023-02-28T09:14:01;3.00;1.00
5842;DHT22;2947;52.276;9.946;2023-02-28T09:16:29;3.10;1.00
5842;DHT22;2947;52.276;9.946;2023-02-28T09:18:59;3.20;99.90
5842;DHT22;2947;52.276;9.946;2023-02-28T09:21:25;3.20;99.90
5842;DHT22;2947;52.276;9.946;2023-02-28T09:23:51;3.30;99.90
5842;DHT22;2947;52.276;9.946;2023-02-28T09:28:52;3.50;99.90
5842;DHT22;2947;52.276;9.946;2023-02-28T09:31:21;3.60;99.90
5842;DHT22;2947;52.276;9.946;2023-02-28T09:33:50;3.80;99.90
5842;DHT22;2947;52.276;9.946;2023-02-28T09:36:17;3.90;99.90
5842;DHT22;2947;52.276;9.946;2023-02-28T09:38:43;3.90;99.90
5842;DHT22;2947;52.276;9.946;2023-02-28T09:41:21;3.90;61.60
5842;DHT22;2947;52.276;9.946;2023-02-28T09:44:00;4.00;7.60
5842;DHT22;2947;52.276;9.946;2023-02-28T09:46:38;4.00;24.80
5842;DHT22;2947;52.276;9.946;2023-02-28T09:49:14;4.10;2.50
5842;DHT22;2947;52.276;9.946;2023-02-28T09:54:34;4.10;1.00
5842;DHT22;2947;52.276;9.946;2023-02-28T09:57:37;4.10;1.00
5842;DHT22;2947;52.276;9.946;2023-02-28T10:00:16;4.10;1.00
5842;DHT22;2947;52.276;9.946;2023-02-28T10:08:57;4.20;1.00
5842;DHT22;2947;52.276;9.946;2023-02-28T10:11:27;4.20;1.00
5842;DHT22;2947;52.276;9.946;2023-02-28T10:13:56;4.20;1.00
5842;DHT22;2947;52.276;9.946;2023-02-28T10:16:36;4.10;1.00
5842;DHT22;2947;52.276;9.946;2023-02-28T10:24:53;4.40;1.00
5842;DHT22;2947;52.276;9.946;2023-02-28T10:27:30;4.50;1.00
5842;DHT22;2947;52.276;9.946;2023-02-28T10:29:59;4.60;1.00
5842;DHT22;2947;52.276;9.946;2023-02-28T10:32:29;4.70;1.00
5842;DHT22;2947;52.276;9.946;2023-02-28T10:35:11;4.70;1.00
5842;DHT22;2947;52.276;9.946;2023-02-28T10:37:55;4.90;1.00
5842;DHT22;2947;52.276;9.946;2023-02-28T10:43:20;5.10;1.00
5842;DHT22;2947;52.276;9.946;2023-02-28T10:46:00;5.20;1.00
5842;DHT22;2947;52.276;9.946;2023-02-28T10:48:40;5.40;1.00
5842;DHT22;2947;52.276;9.946;2023-02-28T10:51:12;5.40;1.00
5842;DHT22;2947;52.276;9.946;2023-02-28T10:53:52;5.50;1.00
5842;DHT22;2947;52.276;9.946;2023-02-28T10:56:20;5.60;1.00
5842;DHT22;2947;52.276;9.946;2023-02-28T11:01:48;5.60;99.90
5842;DHT22;2947;52.276;9.946;2023-02-28T11:07:06;5.70;99.90
5842;DHT22;2947;52.276;9.946;2023-02-28T11:09:46;5.60;99.90
5842;DHT22;2947;52.276;9.946;2023-02-28T11:20:51;5.90;99.90
5842;DHT22;2947;52.276;9.946;2023-02-28T11:23:18;5.90;99.90
5842;DHT22;2947;52.276;9.946;2023-02-28T11:25:51;6.10;99.90
5842;DHT22;2947;52.276;9.946;2023-02-28T11:28:36;6.10;99.90
5842;DHT22;2947;52.276;9.946;2023-02-28T11:31:14;6.20;99.90
5842;DHT22;2947;52.276;9.946;2023-02-28T11:33:45;6.30;99.90
5842;DHT22;2947;52.276;9.946;2023-02-28T11:36:21;6.60;99.90
5842;DHT22;2947;52.276;9.946;2023-02-28T11:38:51;6.60;99.90
5842;DHT22;2947;52.276;9.946;2023-02-28T11:41:30;6.80;99.90
5842;DHT22;2947;52.276;9.946;2023-02-28T11:44:26;6.80;99.90
5842;DHT22;2947;52.276;9.946;2023-02-28T11:50:16;7.10;99.90
5842;DHT22;2947;52.276;9.946;2023-02-28T11:53:21;7.10;99.90
5842;DHT22;2947;52.276;9.946;2023-02-28T11:55:54;7.00;99.90
5842;DHT22;2947;52.276;9.946;2023-02-28T12:02:05;7.10;99.90
5842;DHT22;2947;52.276;9.946;2023-02-28T12:10:28;7.30;99.90
5842;DHT22;2947;52.276;9.946;2023-02-28T12:13:29;7.50;99.90
5842;DHT22;2947;52.276;9.946;2023-02-28T12:16:20;7.40;99.90
5842;DHT22;2947;52.276;9.946;2023-02-28T12:19:01;7.50;99.90
5842;DHT22;2947;52.276;9.946;2023-02-28T12:21:48;7.40;99.90
5842;DHT22;2947;52.276;9.946;2023-02-28T12:27:38;7.70;99.90
5842;DHT22;2947;52.276;9.946;2023-02-28T12:30:21;7.60;99.90
5842;DHT22;2947;52.276;9.946;2023-02-28T12:33:05;7.80;99.90
5842;DHT22;2947;52.276;9.946;2023-02-28T12:35:37;7.90;99.90
5842;DHT22;2947;52.276;9.946;2023-02-28T12:40:56;8.10;99.90
5842;DHT22;2947;52.276;9.946;2023-02-28T12:43:44;8.00;99.90
5842;DHT22;2947;52.276;9.946;2023-02-28T12:46:51;8.10;99.90
5842;DHT22;2947;52.276;9.946;2023-02-28T12:49:33;8.20;99.90
5842;DHT22;2947;52.276;9.946;2023-02-28T12:52:01;8.30;99.90
5842;DHT22;2947;52.276;9.946;2023-02-28T12:54:30;8.20;99.90
5842;DHT22;2947;52.276;9.946;2023-02-28T12:57:31;8.10;99.90
5842;DHT22;2947;52.276;9.946;2023-02-28T13:00:13;7.90;99.90
5842;DHT22;2947;52.276;9.946;2023-02-28T13:06:20;7.80;99.90
5842;DHT22;2947;52.276;9.946;2023-02-28T13:11:46;7.50;99.90
5842;DHT22;2947;52.276;9.946;2023-02-28T13:17:10;7.30;99.90
5842;DHT22;2947;52.276;9.946;2023-02-28T13:19:43;7.40;99.90
5842;DHT22;2947;52.276;9.946;2023-02-28T13:22:19;7.40;99.90
5842;DHT22;2947;52.276;9.946;2023-02-28T13:24:48;7.50;99.90
5842;DHT22;2947;52.276;9.946;2023-02-28T13:29:42;7.20;99.90
5842;DHT22;2947;52.276;9.946;2023-02-28T13:34:37;7.40;99.90
5842;DHT22;2947;52.276;9.946;2023-02-28T13:39:52;7.50;99.90
5842;DHT22;2947;52.276;9.946;2023-02-28T13:42:34;7.60;99.90
5842;DHT22;2947;52.276;9.946;2023-02-28T13:45:28;7.50;99.90
5842;DHT22;2947;52.276;9.946;2023-02-28T13:48:02;7.40;99.90
5842;DHT22;2947;52.276;9.946;2023-02-28T13:50:35;7.30;99.90
5842;DHT22;2947;52.276;9.946;2023-02-28T13:56:03;7.20;99.90
5842;DHT22;2947;52.276;9.946;2023-02-28T13:59:07;7.20;99.90
5842;DHT22;2947;52.276;9.946;2023-02-28T14:02:08;7.10;99.90
5842;DHT22;2947;52.276;9.946;2023-02-28T14:07:59;6.80;99.90
5842;DHT22;2947;52.276;9.946;2023-02-28T14:10:35;6.80;99.90
5842;DHT22;2947;52.276;9.946;2023-02-28T14:16:19;6.60;99.90
5842;DHT22;2947;52.276;9.946;2023-02-28T14:19:02;6.70;99.90
5842;DHT22;2947;52.276;9.946;2023-02-28T14:21:35;6.60;99.90
5842;DHT22;2947;52.276;9.946;2023-02-28T14:24:16;6.50;99.90
5842;DHT22;2947;52.276;9.946;2023-02-28T14:30:10;6.50;99.90
5842;DHT22;2947;52.276;9.946;2023-02-28T14:36:36;6.50;99.90
5842;DHT22;2947;52.276;9.946;2023-02-28T14:39:18;6.50;99.90
5842;DHT22;2947;52.276;9.946;2023-02-28T14:41:47;6.60;99.90
5842;DHT22;2947;52.276;9.946;2023-02-28T14:44:24;6.60;99.90
5842;DHT22;2947;52.276;9.946;2023-02-28T14:47:02;6.40;99.90
5842;DHT22;2947;52.276;9.946;2023-02-28T14:49:57;6.40;99.90
5842;DHT22;2947;52.276;9.946;2023-02-28T14:52:28;6.20;99.90
5842;DHT22;2947;52.276;9.946;2023-02-28T14:55:10;6.20;99.90
5842;DHT22;2947;52.276;9.946;2023-02-28T14:57:41;6.20;99.90
5842;DHT22;2947;52.276;9.946;2023-02-28T15:00:25;6.20;99.90
5842;DHT22;2947;52.276;9.946;2023-02-28T15:02:55;6.30;99.90
5842;DHT22;2947;52.276;9.946;2023-02-28T15:05:30;6.20;99.90
5842;DHT22;2947;52.276;9.946;2023-02-28T15:08:16;6.20;99.90
5842;DHT22;2947;52.276;9.946;2023-02-28T15:10:57;6.30;99.90
5842;DHT22;2947;52.276;9.946;2023-02-28T15:13:47;6.20;99.90
5842;DHT22;2947;52.276;9.946;2023-02-28T15:16:22;6.20;99.90
5842;DHT22;2947;52.276;9.946;2023-02-28T15:19:07;6.10;99.90
5842;DHT22;2947;52.276;9.946;2023-02-28T15:21:43;6.10;99.90
5842;DHT22;2947;52.276;9.946;2023-02-28T15:24:27;6.10;99.90
5842;DHT22;2947;52.276;9.946;2023-02-28T15:27:01;6.00;99.90
5842;DHT22;2947;52.276;9.946;2023-02-28T15:29:32;6.00;99.90
5842;DHT22;2947;52.276;9.946;2023-02-28T15:32:27;6.00;99.90
5842;DHT22;2947;52.276;9.946;2023-02-28T15:34:59;5.90;99.90
5842;DHT22;2947;52.276;9.946;2023-02-28T15:37:40;5.90;99.90
5842;DHT22;2947;52.276;9.946;2023-02-28T15:40:42;5.90;99.90
5842;DHT22;2947;52.276;9.946;2023-02-28T15:43:37;5.90;99.90
5842;DHT22;2947;52.276;9.946;2023-02-28T15:46:09;5.80;99.90
5842;DHT22;2947;52.276;9.946;2023-02-28T15:48:56;5.80;99.90
5842;DHT22;2947;52.276;9.946;2023-02-28T15:51:31;5.80;99.90
5842;DHT22;2947;52.276;9.946;2023-02-28T15:54:05;5.70;99.90
5842;DHT22;2947;52.276;9.946;2023-02-28T15:56:42;5.60;99.90
5842;DHT22;2947;52.276;9.946;2023-02-28T15:59:16;5.60;99.90
5842;DHT22;2947;52.276;9.946;2023-02-28T16:01:44;5.50;99.90
5842;DHT22;2947;52.276;9.946;2023-02-28T16:04:18;5.40;99.90
5842;DHT22;2947;52.276;9.946;2023-02-28T16:06:46;5.40;99.90
5842;DHT22;2947;52.276;9.946;2023-02-28T16:09:26;5.40;99.90
5842;DHT22;2947;52.276;9.946;2023-02-28T16:11:54;5.40;99.90
5842;DHT22;2947;52.276;9.946;2023-02-28T16:14:24;5.40;99.90
5842;DHT22;2947;52.276;9.946;2023-02-28T16:16:57;5.30;99.90
5842;DHT22;2947;52.276;9.946;2023-02-28T16:19:28;5.30;99.90
5842;DHT22;2947;52.276;9.946;2023-02-28T16:21:54;5.30;99.90
5842;DHT22;2947;52.276;9.946;2023-02-28T16:24:20;5.30;99.90
5842;DHT22;2947;52.276;9.946;2023-02-28T16:26:48;5.30;99.90
5842;DHT22;2947;52.276;9.946;2023-02-28T16:29:31;5.20;99.90
5842;DHT22;2947;52.276;9.946;2023-02-28T16:31:59;5.20;99.90
5842;DHT22;2947;52.276;9.946;2023-02-28T16:34:25;5.20;99.90
5842;DHT22;2947;52.276;9.946;2023-02-28T16:36:51;5.10;99.90
5842;DHT22;2947;52.276;9.946;2023-02-28T16:39:17;5.10;99.90
5842;DHT22;2947;52.276;9.946;2023-02-28T16:41:46;5.10;99.90
5842;DHT22;2947;52.276;9.946;2023-02-28T16:44:27;5.10;99.90
5842;DHT22;2947;52.276;9.946;2023-02-28T16:46:55;5.00;99.90
5842;DHT22;2947;52.276;9.946;2023-02-28T16:49:21;5.00;99.90
5842;DHT22;2947;52.276;9.946;2023-02-28T16:51:47;4.90;99.90
5842;DHT22;2947;52.276;9.946;2023-02-28T16:54:12;4.90;99.90
5842;DHT22;2947;52.276;9.946;2023-02-28T16:56:42;4.80;99.90
5842;DHT22;2947;52.276;9.946;2023-02-28T16:59:10;4.70;99.90
5842;DHT22;2947;52.276;9.946;2023-02-28T17:01:36;4.70;99.90
5842;DHT22;2947;52.276;9.946;2023-02-28T17:04:02;4.70;99.90
5842;DHT22;2947;52.276;9.946;2023-02-28T17:06:29;4.60;99.90
5842;DHT22;2947;52.276;9.946;2023-02-28T17:08:56;4.50;99.90
5842;DHT22;2947;52.276;9.946;2023-02-28T17:11:26;4.50;99.90
5842;DHT22;2947;52.276;9.946;2023-02-28T17:13:52;4.40;99.90
5842;DHT22;2947;52.276;9.946;2023-02-28T17:19:06;4.30;99.90
5842;DHT22;2947;52.276;9.946;2023-02-28T17:21:36;4.30;99.90
5842;DHT22;2947;52.276;9.946;2023-02-28T17:24:03;4.30;99.90
5842;DHT22;2947;52.276;9.946;2023-02-28T17:26:29;4.30;99.90
5842;DHT22;2947;52.276;9.946;2023-02-28T17:28:56;4.30;99.90
5842;DHT22;2947;52.276;9.946;2023-02-28T17:31:24;4.20;99.90
5842;DHT22;2947;52.276;9.946;2023-02-28T17:33:50;4.20;99.90
5842;DHT22;2947;52.276;9.946;2023-02-28T17:36:24;4.20;99.90
5842;DHT22;2947;52.276;9.946;2023-02-28T17:38:54;4.10;99.90
5842;DHT22;2947;52.276;9.946;2023-02-28T17:41:24;4.10;99.90
5842;DHT22;2947;52.276;9.946;2023-02-28T17:43:51;4.10;99.90
5842;DHT22;2947;52.276;9.946;2023-02-28T17:46:20;4.00;99.90
5842;DHT22;2947;52.276;9.946;2023-02-28T17:48:48;4.00;99.90
5842;DHT22;2947;52.276;9.946;2023-02-28T17:51:14;4.00;99.90
5842;DHT22;2947;52.276;9.946;2023-02-28T17:53:43;4.00;99.90
5842;DHT22;2947;52.276;9.946;2023-02-28T17:56:15;4.00;99.90
5842;DHT22;2947;52.276;9.946;2023-02-28T17:58:42;3.90;99.90
5842;DHT22;2947;52.276;9.946;2023-02-28T18:01:07;3.90;99.90
5842;DHT22;2947;52.276;9.946;2023-02-28T18:03:33;3.90;99.90
5842;DHT22;2947;52.276;9.946;2023-02-28T18:05:59;3.80;99.90
5842;DHT22;2947;52.276;9.946;2023-02-28T18:08:25;3.80;99.90
5842;DHT22;2947;52.276;9.946;2023-02-28T18:10:52;3.80;99.90
5842;DHT22;2947;52.276;9.946;2023-02-28T18:13:17;3.80;99.90
5842;DHT22;2947;52.276;9.946;2023-02-28T18:15:43;3.80;99.90
5842;DHT22;2947;52.276;9.946;2023-02-28T18:18:09;3.70;99.90
5842;DHT22;2947;52.276;9.946;2023-02-28T18:20:34;3.70;99.90
5842;DHT22;2947;52.276;9.946;2023-02-28T18:23:01;3.60;99.90
5842;DHT22;2947;52.276;9.946;2023-02-28T18:25:27;3.60;99.90
5842;DHT22;2947;52.276;9.946;2023-02-28T18:27:52;3.60;99.90
5842;DHT22;2947;52.276;9.946;2023-02-28T18:30:20;3.50;99.90
5842;DHT22;2947;52.276;9.946;2023-02-28T18:32:46;3.40;99.90
5842;DHT22;2947;52.276;9.946;2023-02-28T18:35:12;3.40;99.90
5842;DHT22;2947;52.276;9.946;2023-02-28T18:37:38;3.30;99.90
5842;DHT22;2947;52.276;9.946;2023-02-28T18:40:04;3.30;99.90
5842;DHT22;2947;52.276;9.946;2023-02-28T18:42:30;3.30;99.90
5842;DHT22;2947;52.276;9.946;2023-02-28T18:44:59;3.30;99.90
5842;DHT22;2947;52.276;9.946;2023-02-28T18:47:25;3.20;99.90
5842;DHT22;2947;52.276;9.946;2023-02-28T18:49:51;3.20;99.90
5842;DHT22;2947;52.276;9.946;2023-02-28T18:52:16;3.10;99.90
5842;DHT22;2947;52.276;9.946;2023-02-28T18:54:42;3.10;99.90
5842;DHT22;2947;52.276;9.946;2023-02-28T18:57:08;3.10;99.90
5842;DHT22;2947;52.276;9.946;2023-02-28T18:59:33;3.00;99.90
5842;DHT22;2947;52.276;9.946;2023-02-28T19:01:59;3.00;99.90